May 23, 2022

Time Code Weather Temp. Visibility Clouds Wind METAR/SPECI
9:50 am
V
66 °F 6¼ mi+ - 130°   130° 8 kt METAR EDLV 230750Z 13008KT 090V160 CAVOK 19/12 Q1003
9:20 am
V
66 °F 6¼ mi+ - 110°   110° 5 kt METAR EDLV 230720Z 11005KT 070V140 CAVOK 19/12 Q1003
8:50 am
V
64 °F 6¼ mi+ - 110°   110° 5 kt METAR EDLV 230650Z 11005KT 060V130 CAVOK 18/12 Q1003
8:20 am
V
63 °F 6¼ mi+ - 110°   110° 5 kt METAR EDLV 230620Z 11005KT 080V140 CAVOK 17/11 Q1004
7:50 am
V
63 °F 6¼ mi+ - 110°   110° 4 kt METAR EDLV 230550Z 11004KT 060V130 CAVOK 17/12 Q1004
7:20 am
V
61 °F 6¼ mi+ - 110°   110° 5 kt METAR EDLV 230520Z 11005KT 080V140 CAVOK 16/11 Q1004
6:50 am
V
59 °F 6¼ mi+ - 100°   100° 3 kt METAR EDLV 230450Z 10003KT CAVOK 15/11 Q1005
6:20 am
V
57 °F 6¼ mi+ - Var   Var 2 kt METAR EDLV 230420Z VRB02KT CAVOK 14/10 Q1005
5:50 am
V
59 °F 6¼ mi+ - Var   Var 2 kt METAR EDLV 230350Z VRB02KT CAVOK 15/11 Q1005
5:20 am
V
59 °F 6¼ mi+ - Var   Var 2 kt METAR EDLV 230320Z VRB02KT CAVOK 15/11 Q1006
4:50 am
V
61 °F 6¼ mi+ 11,000 ft Var   Var 2 kt METAR EDLV 230250Z AUTO VRB02KT 9999 // BKN110/// OVC140/// 16/11 Q1006
4:20 am
V
61 °F 6¼ mi+ 12,000 ft 090°   090° 3 kt METAR EDLV 230220Z AUTO 09003KT 030V130 9999 // SCT100/// OVC120/// 16/11 Q1007
3:50 am
V
61 °F 6¼ mi+ 12,000 ft 090°   090° 3 kt METAR EDLV 230150Z AUTO 09003KT 040V120 9999 // FEW100/// OVC120/// 16/10 Q1007
3:20 am
V
61 °F 6¼ mi+ 10,000 ft 070°   070° 4 kt METAR EDLV 230120Z AUTO 07004KT 010V120 9999 // SCT082/// OVC100/// 16/10 Q1007
2:50 am
V
61 °F 6¼ mi+ 11,000 ft 080°   080° 4 kt METAR EDLV 230050Z AUTO 08004KT 040V130 9999 // FEW083/// BKN110/// OVC130/// 16/10 Q1007
2:20 am
V
61 °F 6¼ mi+ 13,000 ft 110°   110° 5 kt METAR EDLV 230020Z AUTO 11005KT 080V140 9999 // OVC130/// 16/10 Q1007
1:50 am
V
61 °F 6¼ mi+ 14,000 ft 110°   110° 5 kt METAR EDLV 222350Z AUTO 11005KT 080V140 9999 // OVC140/// 16/10 Q1008
1:20 am
V
63 °F 6¼ mi+ 15,000 ft 090°   090° 4 kt METAR EDLV 222320Z AUTO 09004KT 060V130 9999 // FEW110/// OVC150/// 17/10 Q1009
12:50 am
V
63 °F 6¼ mi+ 15,000 ft 080°   080° 3 kt METAR EDLV 222250Z AUTO 08003KT 030V130 9999 // SCT110/// OVC150/// 17/10 Q1009
12:20 am
V
63 °F 6¼ mi+ 18,000 ft 080°   080° 3 kt METAR EDLV 222220Z AUTO 08003KT 050V130 9999 // SCT110/// OVC180/// 17/10 Q1009

May 22, 2022

Time Code Weather Temp. Visibility Clouds Wind METAR/SPECI
11:50 pm
V
63 °F 6¼ mi+ 18,000 ft 080°   080° 3 kt METAR EDLV 222150Z AUTO 08003KT 020V120 9999 // FEW110/// OVC180/// 17/10 Q1010
11:20 pm
V
63 °F 6¼ mi+ - 080°   080° 3 kt METAR EDLV 222120Z 08003KT 040V130 CAVOK 17/10 Q1010
10:50 pm
V
64 °F 6¼ mi+ - 080°   080° 3 kt METAR EDLV 222050Z 08003KT 040V130 CAVOK 18/10 Q1010
10:20 pm
V
64 °F 6¼ mi+ - 060°   060° 3 kt METAR EDLV 222020Z 06003KT 020V100 CAVOK 18/10 Q1010
9:50 pm
V
66 °F 6¼ mi+ - Var   Var 2 kt METAR EDLV 221950Z VRB02KT CAVOK 19/10 Q1010
9:20 pm
V
66 °F 6¼ mi+ - 060°   060° 2 kt METAR EDLV 221920Z 06002KT CAVOK 19/10 Q1010
8:50 pm
V
68 °F 6¼ mi+ - Var   Var 2 kt METAR EDLV 221850Z VRB02KT CAVOK 20/10 Q1010
8:20 pm
V
70 °F 6¼ mi+ - 060°   060° 3 kt METAR EDLV 221820Z 06003KT 020V100 CAVOK 21/10 Q1011
7:50 pm
V
70 °F 6¼ mi+ - 080°   080° 3 kt METAR EDLV 221750Z 08003KT 360V130 CAVOK 21/10 Q1011
7:20 pm
V
72 °F 6¼ mi+ - 060°   060° 4 kt METAR EDLV 221720Z 06004KT 350V120 CAVOK 22/10 Q1011
6:50 pm
V
72 °F 6¼ mi+ - Var   Var 4 kt METAR EDLV 221650Z VRB04KT CAVOK 22/10 Q1011
6:20 pm
V
72 °F 6¼ mi+ - 090°   090° 4 kt METAR EDLV 221620Z 09004KT 020V130 CAVOK 22/10 Q1012
5:50 pm
V
72 °F 6¼ mi+ - 100°   100° 5 kt METAR EDLV 221550Z 10005KT 350V150 CAVOK 22/10 Q1012
5:20 pm
V
72 °F 6¼ mi+ - Var   Var 4 kt METAR EDLV 221520Z VRB04KT CAVOK 22/10 Q1013
4:50 pm
V
72 °F 6¼ mi+ - Var   Var 5 kt METAR EDLV 221450Z VRB05KT CAVOK 22/10 Q1013
4:20 pm
V
70 °F 6¼ mi+ - 050°   050° 5 kt METAR EDLV 221420Z 05005KT 350V110 CAVOK 21/10 Q1013
3:50 pm
V
70 °F 6¼ mi+ - 080°   080° 5 kt METAR EDLV 221350Z 08005KT 010V140 9999 FEW047 21/10 Q1014
3:20 pm
V
70 °F 6¼ mi+ - Var   Var 4 kt METAR EDLV 221320Z VRB04KT 9999 FEW048 21/10 Q1014
2:50 pm
V
70 °F 6¼ mi+ - 130°   130° 5 kt METAR EDLV 221250Z 13005KT 070V220 9999 SCT047 21/10 Q1014
2:20 pm
V
70 °F 6¼ mi+ - Var   Var 3 kt METAR EDLV 221220Z VRB03KT 9999 SCT045 21/09 Q1015
1:50 pm
V
68 °F 6¼ mi+ - 110°   110° 6 kt METAR EDLV 221150Z 11006KT 060V150 9999 FEW042 20/09 Q1015
1:20 pm
V
66 °F 6¼ mi+ - Var   Var 5 kt METAR EDLV 221120Z VRB05KT 9999 SCT041 19/10 Q1015
12:50 pm
V
66 °F 6¼ mi+ - Var   Var 4 kt METAR EDLV 221050Z VRB04KT 9999 SCT040 19/10 Q1016
12:20 pm
V
66 °F 6¼ mi+ - 020°   020° 4 kt METAR EDLV 221020Z 02004KT 320V100 9999 SCT039 19/11 Q1016
11:50 am
V
64 °F 6¼ mi+ - Var   Var 4 kt METAR EDLV 220950Z VRB04KT 9999 SCT035 18/09 Q1016
11:20 am
V
63 °F 6¼ mi+ - Var   Var 4 kt METAR EDLV 220920Z VRB04KT 9999 FEW034 17/10 Q1016
10:50 am
V
63 °F 6¼ mi+ - Var   Var 3 kt METAR EDLV 220850Z VRB03KT CAVOK 17/09 Q1017
10:20 am
V
63 °F 6¼ mi+ - 020°   020° 3 kt METAR EDLV 220820Z 02003KT 330V100 9999 // FEW041 17/10 Q1017
9:50 am
V
61 °F 6¼ mi+ 4,900 ft Var   Var 3 kt METAR EDLV 220750Z VRB03KT 9999 SCT040 BKN049 16/10 Q1018
9:20 am
V
59 °F 6¼ mi+ 4,000 ft 080°   080° 3 kt METAR EDLV 220720Z 08003KT 020V130 9999 BKN040 15/10 Q1018
8:50 am
V
59 °F 6¼ mi+ - 080°   080° 3 kt METAR EDLV 220650Z 08003KT 020V170 9999 FEW042 15/10 Q1018
8:20 am
V
57 °F 6¼ mi+ - 090°   090° 3 kt METAR EDLV 220620Z 09003KT 040V140 CAVOK 14/10 Q1017
7:50 am
V
55 °F 6¼ mi+ - Var   Var 2 kt METAR EDLV 220550Z VRB02KT CAVOK 13/10 Q1018
7:20 am
V
54 °F 6¼ mi+ - Var   Var 1 kt METAR EDLV 220520Z VRB01KT CAVOK 12/10 Q1017
6:50 am
V
52 °F 6¼ mi+ - Var   Var 1 kt METAR EDLV 220450Z VRB01KT CAVOK 11/10 Q1018
6:20 am
V
50 °F 6¼ mi+ - Var   Var 1 kt METAR EDLV 220420Z VRB01KT 9999 SCT041 10/09 Q1018
5:50 am
V
50 °F 6¼ mi+ 4,000 ft 020°   020° 2 kt METAR EDLV 220350Z 02002KT 9999 BKN040 10/09 Q1018
5:20 am
V
50 °F 6¼ mi+ - Var   Var 2 kt METAR EDLV 220320Z VRB02KT 9999 SCT039 10/09 Q1018
4:50 am
V
50 °F 6¼ mi+ 5,000 ft Var   Var 1 kt METAR EDLV 220250Z AUTO VRB01KT 9999 R27///// // SCT039/// BKN050/// 10/09 Q1018
4:20 am
V
50 °F 6¼ mi+ 5,700 ft Var   000° 0 kt METAR EDLV 220220Z AUTO 00000KT 9999 R27///// // SCT041/// BKN057/// 10/09 Q1018
3:50 am
V
48 °F 6¼ mi+ - Var   000° 0 kt METAR EDLV 220150Z AUTO 00000KT 9999 R27///// // SCT051/// 09/08 Q1019
3:20 am
V
50 °F 6¼ mi+ - Var   000° 0 kt METAR EDLV 220120Z AUTO 00000KT 9999 R27///// // FEW057/// 10/09 Q1019
2:50 am
V
52 °F 6¼ mi+ 22,000 ft 100°   100° 1 kt METAR EDLV 220050Z AUTO 10001KT 9999 R27///// // FEW050/// BKN220/// 11/09 Q1019
2:20 am
V
52 °F 6¼ mi+ 22,000 ft 070°   070° 1 kt METAR EDLV 220020Z AUTO 07001KT 9999 R27///// // SCT058/// BKN220/// 11/09 Q1019
1:50 am
V
54 °F 6¼ mi+ 22,000 ft Var   Var 2 kt METAR EDLV 212350Z AUTO VRB02KT 9999 R27///// // FEW056/// BKN220/// 12/09 Q1019
1:20 am
V
54 °F 6¼ mi+ 5,700 ft Var   Var 1 kt METAR EDLV 212320Z AUTO VRB01KT 9999 R27///// // BKN057/// 12/09 Q1020
12:50 am
V
54 °F 6¼ mi+ 5,500 ft Var   Var 2 kt METAR EDLV 212250Z AUTO VRB02KT 9999 R27///// // BKN055/// 12/10 Q1020
12:20 am
V
54 °F 6¼ mi+ - Var   Var 1 kt METAR EDLV 212220Z AUTO VRB01KT 9999 R27///// // NCD 12/09 Q1019

May 21, 2022

Time Code Weather Temp. Visibility Clouds Wind METAR/SPECI
11:50 pm
V
54 °F 6¼ mi+ - Var   000° 0 kt METAR EDLV 212150Z 00000KT CAVOK 12/09 Q1020
11:20 pm
V
54 °F 6¼ mi+ - 350°   350° 1 kt METAR EDLV 212120Z 35001KT CAVOK 12/09 Q1020
10:50 pm
V
55 °F 6¼ mi+ - Var   000° 0 kt METAR EDLV 212050Z 00000KT 9999 R27///// NSC 13/10 Q1020
10:20 pm
V
57 °F 6¼ mi+ - 360°   360° 1 kt METAR EDLV 212020Z 36001KT CAVOK 14/10 Q1020
9:50 pm
V
59 °F 6¼ mi+ - Var   Var 1 kt METAR EDLV 211950Z VRB01KT 9999 NSC 15/09 Q1020
9:20 pm
V
61 °F 6¼ mi+ - 330°   330° 2 kt METAR EDLV 211920Z 33002KT 9999 NSC 16/10 Q1020
8:50 pm
V
63 °F 6¼ mi+ - 320°   320° 4 kt METAR EDLV 211850Z 32004KT 9999 FEW043 17/09 Q1020
8:20 pm
V
64 °F 6¼ mi+ - 320°   320° 4 kt METAR EDLV 211820Z 32004KT 290V350 9999 FEW042 18/10 Q1020
7:50 pm
V
64 °F 6¼ mi+ - 320°   320° 4 kt METAR EDLV 211750Z 32004KT 280V360 9999 SCT048 18/10 Q1020
7:20 pm
V
64 °F 6¼ mi+ 4,500 ft 310°   310° 5 kt METAR EDLV 211720Z 31005KT 270V350 9999 BKN045 18/10 Q1020
6:50 pm
V
64 °F 6¼ mi+ - 300°   300° 6 kt METAR EDLV 211650Z 30006KT 270V350 9999 FEW044 18/09 Q1020
6:20 pm
V
66 °F 6¼ mi+ - 290°   290° 8 kt METAR EDLV 211620Z 29008KT 9999 FEW044 19/09 Q1020
5:50 pm
V
66 °F 6¼ mi+ - 310°   310° 6 kt METAR EDLV 211550Z 31006KT 270V360 9999 FEW043 19/09 Q1020
5:20 pm
V
66 °F 6¼ mi+ - 290°   290° 5 kt METAR EDLV 211520Z 29005KT 260V320 9999 FEW046 19/09 Q1021
4:50 pm
V
66 °F 6¼ mi+ - 290°   290° 7 kt METAR EDLV 211450Z 29007KT 250V340 9999 FEW044 19/09 Q1021
4:20 pm
V
64 °F 6¼ mi+ - 270°   270° 11 kt METAR EDLV 211420Z 27011KT 9999 FEW042 18/10 Q1021
3:50 pm
V
66 °F 6¼ mi+ 4,200 ft 280°   280° 10 kt METAR EDLV 211350Z 28010KT 250V310 9999 BKN042 19/09 Q1021
3:20 pm
V
66 °F 6¼ mi+ 3,800 ft 280°   280° 9 kt METAR EDLV 211320Z 28009KT 250V320 9999 BKN038 19/10 Q1021
2:50 pm
V
64 °F 6¼ mi+ - 260°   260° 9 kt METAR EDLV 211250Z 26009KT 230V310 9999 SCT035 18/10 Q1021
2:20 pm
V
64 °F 6¼ mi+ 4,000 ft 260°   260° 11 kt METAR EDLV 211220Z 26011KT 9999 FEW034 BKN040 18/10 Q1021
1:50 pm
V
63 °F 6¼ mi+ - 270°   270° 11 kt METAR EDLV 211150Z 27011KT 240V300 9999 FEW032 17/11 Q1021
1:20 pm
V
63 °F 6¼ mi+ - 260°   260° 10 kt METAR EDLV 211120Z 26010KT 9999 SCT032 17/11 Q1021
12:50 pm
V
63 °F 6¼ mi+ 3,900 ft 270°   270° 10 kt METAR EDLV 211050Z 27010KT 9999 BKN039 BKN048 17/10 Q1021
12:20 pm
V
63 °F 6¼ mi+ 4,600 ft 270°   270° 12 kt METAR EDLV 211020Z 27012KT 240V300 9999 SCT031 BKN046 17/11 Q1021
11:50 am
M
61 °F 6¼ mi+ 2,700 ft 250°   250° 12 kt METAR EDLV 210950Z 25012KT 9999 BKN027 BKN036 BKN047 16/10 Q1021
11:20 am
V
61 °F 6¼ mi+ 4,000 ft 250°   250° 12 kt METAR EDLV 210920Z 25012KT 9999 FEW025 BKN040 BKN049 16/10 Q1021
10:50 am
V
59 °F 6¼ mi+ 4,200 ft 240°   240° 13 kt METAR EDLV 210850Z 24013KT 210V280 9999 FEW020 SCT036 BKN042 15/10 Q1021
10:20 am
M
59 °F 6¼ mi+ 2,500 ft 240°   240° 10 kt METAR EDLV 210820Z 24010KT 9999 SCT017 BKN025 15/10 Q1021
9:50 am
M
57 °F 6¼ mi+ 1,700 ft 250°   250° 9 kt METAR EDLV 210750Z 25009KT 220V280 9999 OVC017 14/11 Q1021
9:20 am
M
57 °F 6¼ mi+ 1,500 ft 250°   250° 10 kt METAR EDLV 210720Z 25010KT 9999 BKN015 OVC020 14/10 Q1021
Older data

Download our app

Easy access to all aviation weather on your mobile phone and tablet.
With many features not available on the website, like offline support and a personal airport list.

We and third parties follow your internet behavior on our website with cookies. If you continue, we assume you agree with our cookie policy. Learn more